Terminal Aerodrome Forecast
Issued by NWS Glasgow, MT

Home | Current Version | Previous Version | Text Only | Print | Product List | Glossary On
Versions: 1 2 3 4 5 6 7 8 9 10 11 12 13 14 15 16 17 18 19
361
FTUS45 KGGW 060520
TAFGGW
TAF
KGGW 060520Z 0606/0706 29009KT P6SM BKN150 WS020/30040KT
     FM061200 22010KT P6SM BKN110 WS020/27045KT
     FM061800 27023G32KT P6SM BKN120
     FM062100 29028G40KT P6SM BKN060=

USA.gov is the U.S. government's official web portal to all federal, state and local government web resources and services.